Time;durP1;ratioP1;P1;durP2;ratioP2;P2;SDS_P1;SDS_P2;PMS_P1;PMS_P2;Temp;Humidity;BMP_temperature;BMP_pressure;BME280_temperature;BME280_humidity;BME280_pressure;Samples;Min_cycle;Max_cycle;Signal;HPM_P1;HPM_P2
2023/07/27 00:02:25;;;;;;;12.43;3.67;;;16.50;99.90;;;;;;5036509;28;20040;-61
2023/07/27 00:04:51;;;;;;;7.72;2.60;;;16.50;99.90;;;;;;5031746;28;20110;-60
2023/07/27 00:07:16;;;;;;;4.05;2.85;;;16.50;99.90;;;;;;5034268;28;20542;-61
2023/07/27 00:09:42;;;;;;;7.53;3.42;;;16.50;99.90;;;;;;5031531;28;20018;-61
2023/07/27 00:12:08;;;;;;;11.75;3.17;;;16.40;99.90;;;;;;5042234;28;20040;-61
2023/07/27 00:14:33;;;;;;;8.55;3.38;;;16.40;99.90;;;;;;5031390;28;20041;-62
2023/07/27 00:16:59;;;;;;;7.80;2.90;;;16.40;99.90;;;;;;5033392;28;20029;-60
2023/07/27 00:19:24;;;;;;;7.15;3.55;;;16.40;99.90;;;;;;5030944;28;20041;-60
2023/07/27 00:21:50;;;;;;;5.28;3.00;;;16.40;99.90;;;;;;5031296;28;20092;-61
2023/07/27 00:24:15;;;;;;;7.03;3.10;;;16.40;99.90;;;;;;5033324;28;20566;-62
2023/07/27 00:26:41;;;;;;;4.45;3.13;;;16.40;99.90;;;;;;5039427;28;20512;-62
2023/07/27 00:29:07;;;;;;;4.80;2.60;;;16.40;99.90;;;;;;5025698;28;20621;-61
2023/07/27 00:31:33;;;;;;;6.35;2.63;;;16.40;99.90;;;;;;5028911;28;20714;-60
2023/07/27 00:33:58;;;;;;;5.60;3.00;;;16.40;99.90;;;;;;5034014;28;20045;-58
2023/07/27 00:36:24;;;;;;;5.88;2.97;;;16.40;99.90;;;;;;5028717;28;20063;-62
2023/07/27 00:38:49;;;;;;;4.15;3.10;;;16.50;99.90;;;;;;5030812;28;20018;-61
2023/07/27 00:41:15;;;;;;;7.82;2.85;;;16.50;99.90;;;;;;5029238;28;20716;-61
2023/07/27 00:43:40;;;;;;;8.13;2.95;;;16.60;99.90;;;;;;5034349;28;20030;-62
2023/07/27 00:46:07;;;;;;;7.20;2.60;;;16.60;99.90;;;;;;5035701;28;20092;-62
2023/07/27 00:48:33;;;;;;;5.40;2.90;;;16.60;99.90;;;;;;5030377;28;20021;-62
2023/07/27 00:50:59;;;;;;;12.32;3.42;;;16.60;99.90;;;;;;5035022;28;20094;-62
2023/07/27 00:53:24;;;;;;;15.93;3.25;;;16.60;99.90;;;;;;5033850;28;20029;-62
2023/07/27 00:55:50;;;;;;;4.72;2.53;;;16.60;99.90;;;;;;5030688;28;20033;-62
2023/07/27 00:58:16;;;;;;;8.02;2.13;;;16.60;99.90;;;;;;5035532;28;20037;-63
2023/07/27 01:00:42;;;;;;;4.22;2.67;;;16.60;99.90;;;;;;5029070;28;20041;-60
2023/07/27 01:03:08;;;;;;;4.68;2.33;;;16.60;99.90;;;;;;5035196;28;20381;-62
2023/07/27 01:05:35;;;;;;;7.13;3.17;;;16.50;99.90;;;;;;5037534;28;20040;-61
2023/07/27 01:08:00;;;;;;;5.20;3.08;;;16.50;99.90;;;;;;5028419;28;20033;-61
2023/07/27 01:10:53;;;;;;;4.30;2.30;;;16.50;99.90;;;;;;5029922;28;20021;-59
2023/07/27 01:13:28;;;;;;;4.25;2.33;;;16.40;99.90;;;;;;5040916;28;20496;-61
2023/07/27 01:16:03;;;;;;;8.23;3.33;;;16.40;99.90;;;;;;5028157;28;20510;-60
2023/07/27 01:18:51;;;;;;;5.22;3.05;;;16.30;99.90;;;;;;5029503;28;20041;-62
2023/07/27 01:21:23;;;;;;;7.80;2.90;;;16.30;99.90;;;;;;5030295;28;20064;-62
2023/07/27 01:24:29;;;;;;;9.68;2.83;;;16.20;99.90;;;;;;5034155;28;20135;-62
2023/07/27 01:27:13;;;;;;;6.43;2.63;;;16.20;99.90;;;;;;5038486;28;20112;-62
2023/07/27 01:29:47;;;;;;;11.03;2.40;;;16.20;99.90;;;;;;5031952;28;20029;-62
2023/07/27 01:32:15;;;;;;;7.50;3.40;;;16.10;99.90;;;;;;5032839;28;20029;-61
2023/07/27 01:34:43;;;;;;;5.25;2.88;;;16.20;99.90;;;;;;5029642;28;20029;-62
2023/07/27 01:37:13;;;;;;;6.50;2.95;;;16.20;99.90;;;;;;5038340;28;20063;-60
2023/07/27 01:39:41;;;;;;;3.53;2.10;;;16.20;99.90;;;;;;5032670;28;20025;-60
2023/07/27 01:42:11;;;;;;;11.25;3.88;;;16.20;99.90;;;;;;5033871;28;20033;-62
2023/07/27 01:44:37;;;;;;;6.18;2.55;;;16.20;99.90;;;;;;5033180;28;20027;-57
2023/07/27 01:47:04;;;;;;;3.95;2.08;;;16.30;99.90;;;;;;5029584;28;20562;-56
2023/07/27 01:49:30;;;;;;;6.53;2.97;;;16.30;99.90;;;;;;5032869;28;20037;-60
2023/07/27 01:51:58;;;;;;;4.93;2.75;;;16.30;99.90;;;;;;5034857;28;20072;-61
2023/07/27 01:54:24;;;;;;;5.93;2.83;;;16.20;99.90;;;;;;5036660;28;20021;-59
2023/07/27 01:56:50;;;;;;;11.13;3.72;;;16.20;99.90;;;;;;5040966;28;20025;-59
2023/07/27 01:59:17;;;;;;;6.47;2.80;;;16.30;99.90;;;;;;5037293;28;20216;-59
2023/07/27 02:01:43;;;;;;;10.20;2.92;;;16.30;99.90;;;;;;5031316;28;20040;-61
2023/07/27 02:04:09;;;;;;;6.95;2.92;;;16.20;99.90;;;;;;5031733;28;20033;-62
2023/07/27 02:06:34;;;;;;;6.10;2.75;;;16.20;99.90;;;;;;5038370;28;20522;-60
2023/07/27 02:09:00;;;;;;;6.45;2.72;;;16.20;99.90;;;;;;5037819;28;20036;-61
2023/07/27 02:11:26;;;;;;;4.40;2.35;;;16.20;99.90;;;;;;5040586;28;20048;-60
2023/07/27 02:13:54;;;;;;;11.73;3.78;;;16.10;99.90;;;;;;5030215;28;20037;-60
2023/07/27 02:16:34;;;;;;;8.48;2.80;;;16.10;99.90;;;;;;5030568;28;20057;-62
2023/07/27 02:19:01;;;;;;;10.32;2.90;;;16.10;99.90;;;;;;5031309;28;20033;-62
2023/07/27 02:21:28;;;;;;;8.43;3.28;;;16.10;99.90;;;;;;5034545;28;20029;-61
2023/07/27 02:23:55;;;;;;;7.15;3.22;;;16.10;99.90;;;;;;5028420;28;20040;-61
2023/07/27 02:26:21;;;;;;;6.22;2.83;;;16.10;99.90;;;;;;5036435;28;20418;-60
2023/07/27 02:28:46;;;;;;;5.03;2.60;;;16.10;99.90;;;;;;5030140;28;20456;-61
2023/07/27 02:31:12;;;;;;;5.53;2.90;;;16.00;99.90;;;;;;5030415;28;20030;-61
2023/07/27 02:33:38;;;;;;;7.50;3.28;;;16.00;99.90;;;;;;5030074;28;20026;-59
2023/07/27 02:36:03;;;;;;;5.30;2.70;;;16.00;99.90;;;;;;5038235;28;20048;-59
2023/07/27 02:38:29;;;;;;;7.22;2.85;;;16.10;99.90;;;;;;5041134;28;20108;-59
2023/07/27 02:40:54;;;;;;;6.53;2.92;;;16.10;99.90;;;;;;5032624;28;20095;-59
2023/07/27 02:43:20;;;;;;;8.80;3.13;;;16.10;99.90;;;;;;5041721;28;20032;-60
2023/07/27 02:45:46;;;;;;;7.97;2.90;;;16.30;99.90;;;;;;5028794;28;20056;-60
2023/07/27 02:48:11;;;;;;;5.63;3.25;;;16.30;99.90;;;;;;5045456;28;20021;-59
2023/07/27 02:50:37;;;;;;;8.63;2.90;;;16.50;99.90;;;;;;5030167;28;20017;-61
2023/07/27 02:53:02;;;;;;;4.68;2.85;;;16.60;99.90;;;;;;5046255;28;20017;-60
2023/07/27 02:55:28;;;;;;;8.15;3.42;;;16.40;99.90;;;;;;5033200;28;20029;-60
2023/07/27 02:57:53;;;;;;;8.98;3.00;;;16.50;99.90;;;;;;5035940;28;20026;-60
2023/07/27 03:00:19;;;;;;;8.05;3.70;;;16.40;99.90;;;;;;5036066;28;20038;-61
2023/07/27 03:02:44;;;;;;;6.75;3.13;;;16.30;99.90;;;;;;5045415;28;20037;-62
2023/07/27 03:05:10;;;;;;;6.20;3.55;;;16.20;99.90;;;;;;5029907;28;20021;-61
2023/07/27 03:07:35;;;;;;;6.32;3.13;;;16.10;99.90;;;;;;5045579;28;20033;-59
2023/07/27 03:10:01;;;;;;;3.97;3.22;;;16.00;99.90;;;;;;5028746;28;20014;-62
2023/07/27 03:12:26;;;;;;;8.43;3.80;;;16.00;99.90;;;;;;5036301;28;20022;-61
2023/07/27 03:14:52;;;;;;;3.72;2.90;;;15.90;99.90;;;;;;5028390;28;20400;-61
2023/07/27 03:17:18;;;;;;;6.60;3.85;;;15.80;99.90;;;;;;5040410;28;20477;-60
2023/07/27 03:19:43;;;;;;;6.75;4.07;;;15.70;99.90;;;;;;5039536;28;20408;-62
2023/07/27 03:22:09;;;;;;;7.82;3.88;;;15.60;99.90;;;;;;5040282;28;20034;-60
2023/07/27 03:24:34;;;;;;;10.38;4.40;;;15.60;99.90;;;;;;5034172;28;20090;-60
2023/07/27 03:27:00;;;;;;;8.90;4.90;;;15.50;99.90;;;;;;5033773;28;20022;-59
2023/07/27 03:29:25;;;;;;;7.30;4.25;;;15.40;99.90;;;;;;5037462;28;20028;-61
2023/07/27 03:31:51;;;;;;;7.80;4.70;;;15.30;99.90;;;;;;5036585;28;20033;-61
2023/07/27 03:34:17;;;;;;;11.02;4.38;;;15.30;99.90;;;;;;5033901;28;20445;-62
2023/07/27 03:36:42;;;;;;;9.88;4.57;;;15.30;99.90;;;;;;5039940;28;20021;-63
2023/07/27 03:39:08;;;;;;;6.55;4.82;;;15.30;99.90;;;;;;5038544;28;20033;-62
2023/07/27 03:41:33;;;;;;;9.73;5.13;;;15.30;99.90;;;;;;5031504;28;20094;-60
2023/07/27 03:43:59;;;;;;;9.75;4.72;;;15.20;99.90;;;;;;5033015;28;20030;-62
2023/07/27 03:46:25;;;;;;;13.07;4.50;;;15.20;99.90;;;;;;5033195;28;20033;-61
2023/07/27 03:48:51;;;;;;;9.73;5.03;;;15.30;99.90;;;;;;5038562;28;20036;-59
2023/07/27 03:51:16;;;;;;;7.97;4.95;;;15.30;99.90;;;;;;5019290;28;20018;-61
2023/07/27 03:53:42;;;;;;;7.63;4.65;;;15.30;99.90;;;;;;5040758;28;20013;-55
2023/07/27 03:56:08;;;;;;;10.93;4.60;;;15.30;99.90;;;;;;5028984;28;20385;-59
2023/07/27 03:58:33;;;;;;;10.68;4.93;;;15.30;99.90;;;;;;5035260;28;20116;-60
2023/07/27 04:00:59;;;;;;;8.20;4.32;;;15.30;99.90;;;;;;5023629;28;20611;-62
2023/07/27 04:03:25;;;;;;;9.65;5.47;;;15.30;99.90;;;;;;5042390;28;20029;-61
2023/07/27 04:05:51;;;;;;;11.45;4.60;;;15.30;99.90;;;;;;5022991;28;20029;-61
2023/07/27 04:08:17;;;;;;;10.38;4.65;;;15.30;99.90;;;;;;5042277;28;20033;-60
2023/07/27 04:10:43;;;;;;;9.07;5.13;;;15.30;99.90;;;;;;5024900;28;20421;-59
2023/07/27 04:13:10;;;;;;;9.82;4.75;;;15.30;99.90;;;;;;5056483;28;20106;-61
2023/07/27 04:15:37;;;;;;;13.80;5.32;;;15.30;99.90;;;;;;5033619;28;20017;-60
2023/07/27 04:18:03;;;;;;;11.20;5.75;;;15.20;99.90;;;;;;5035262;28;20025;-61
2023/07/27 04:20:29;;;;;;;9.70;5.30;;;15.30;99.90;;;;;;5033633;28;20108;-60
2023/07/27 04:22:54;;;;;;;10.90;5.65;;;15.30;99.90;;;;;;5040727;28;20146;-62
2023/07/27 04:25:20;;;;;;;14.60;6.40;;;15.30;99.90;;;;;;5031908;28;20369;-61
2023/07/27 04:27:46;;;;;;;9.70;5.40;;;15.20;99.90;;;;;;5032256;28;20103;-61
2023/07/27 04:30:11;;;;;;;7.95;5.15;;;15.30;99.90;;;;;;5033303;28;20586;-59
2023/07/27 04:32:37;;;;;;;9.20;5.75;;;15.30;99.90;;;;;;5029007;28;20029;-59
2023/07/27 04:35:03;;;;;;;10.45;5.68;;;15.20;99.90;;;;;;5025091;28;20101;-61
2023/07/27 04:37:28;;;;;;;11.23;6.00;;;15.20;99.90;;;;;;5040107;28;20022;-62
2023/07/27 04:39:54;;;;;;;12.23;5.60;;;15.20;99.90;;;;;;5026352;28;20037;-61
2023/07/27 04:42:19;;;;;;;9.80;6.10;;;15.20;99.90;;;;;;5031513;28;20025;-62
2023/07/27 04:44:45;;;;;;;15.27;5.80;;;15.20;99.90;;;;;;5036998;28;20472;-61
2023/07/27 04:47:10;;;;;;;9.05;5.18;;;15.20;99.90;;;;;;5026998;28;20030;-62
2023/07/27 04:49:36;;;;;;;18.13;5.82;;;15.20;99.90;;;;;;5032008;28;20060;-62
2023/07/27 04:52:01;;;;;;;12.80;6.13;;;15.20;99.90;;;;;;5019799;28;20022;-62
2023/07/27 04:54:27;;;;;;;11.65;5.25;;;15.20;99.90;;;;;;5027123;28;20396;-63
2023/07/27 04:56:52;;;;;;;15.75;5.85;;;15.10;99.90;;;;;;5037108;28;20057;-63
2023/07/27 04:59:18;;;;;;;16.92;6.28;;;15.10;99.90;;;;;;5034760;28;20029;-63
2023/07/27 05:01:43;;;;;;;13.57;6.25;;;15.10;99.90;;;;;;5044939;28;20078;-61
2023/07/27 05:04:09;;;;;;;10.50;6.28;;;15.10;99.90;;;;;;5032059;28;20059;-61
2023/07/27 05:06:35;;;;;;;13.13;6.43;;;15.10;99.90;;;;;;5027475;28;20087;-61
2023/07/27 05:09:00;;;;;;;12.43;6.53;;;15.10;99.90;;;;;;5033949;28;20499;-64
2023/07/27 05:11:27;;;;;;;12.05;6.10;;;15.10;99.90;;;;;;5035510;28;20029;-63
2023/07/27 05:13:53;;;;;;;16.48;6.68;;;15.10;99.90;;;;;;5036802;28;20021;-60
2023/07/27 05:16:18;;;;;;;15.77;7.25;;;15.10;99.90;;;;;;5028583;28;20037;-62
2023/07/27 05:18:44;;;;;;;13.35;7.55;;;15.10;99.90;;;;;;5038577;28;20021;-64
2023/07/27 05:21:09;;;;;;;13.27;7.70;;;15.10;99.90;;;;;;5025717;28;20485;-64
2023/07/27 05:23:35;;;;;;;20.25;9.82;;;15.10;99.90;;;;;;5056074;28;20036;-63
2023/07/27 05:26:00;;;;;;;23.08;10.10;;;15.10;99.90;;;;;;5029873;28;20044;-64
2023/07/27 05:28:26;;;;;;;20.30;10.95;;;15.20;99.90;;;;;;5036872;28;20039;-63
2023/07/27 05:30:52;;;;;;;18.73;12.27;;;15.20;99.90;;;;;;5024432;28;20032;-64
2023/07/27 05:33:17;;;;;;;19.25;11.80;;;15.20;99.90;;;;;;5039304;28;20033;-63
2023/07/27 05:35:49;;;;;;;23.23;11.93;;;15.20;99.90;;;;;;5022180;28;20135;-64
2023/07/27 05:38:15;;;;;;;22.60;13.70;;;15.20;99.90;;;;;;5038925;28;20030;-64
2023/07/27 05:40:41;;;;;;;18.92;12.48;;;15.20;99.90;;;;;;5027645;28;20504;-64
2023/07/27 05:43:06;;;;;;;21.15;12.40;;;15.20;99.90;;;;;;5038299;28;20043;-63
2023/07/27 05:45:32;;;;;;;29.67;13.25;;;15.30;99.90;;;;;;5022853;28;20045;-63
2023/07/27 05:47:57;;;;;;;19.58;12.60;;;15.30;99.90;;;;;;5032883;28;20446;-63
2023/07/27 05:50:24;;;;;;;22.35;12.95;;;15.30;99.90;;;;;;5024333;28;20486;-64
2023/07/27 05:52:49;;;;;;;25.23;14.02;;;15.40;99.90;;;;;;5032912;28;20025;-63
2023/07/27 05:55:15;;;;;;;20.27;13.60;;;15.30;99.90;;;;;;5025873;28;20063;-62
2023/07/27 05:57:41;;;;;;;22.90;13.77;;;15.40;99.90;;;;;;5028123;28;20036;-64
2023/07/27 06:00:07;;;;;;;21.70;12.38;;;15.40;99.90;;;;;;5032221;28;20026;-63
2023/07/27 06:02:33;;;;;;;23.65;12.75;;;15.40;99.90;;;;;;5032650;28;20022;-63
2023/07/27 06:04:59;;;;;;;21.35;11.18;;;15.40;99.90;;;;;;5024324;28;20026;-65
2023/07/27 06:07:26;;;;;;;20.05;10.70;;;15.40;99.90;;;;;;5031284;28;20037;-63
2023/07/27 06:09:51;;;;;;;18.27;10.18;;;15.40;99.90;;;;;;5020730;28;20021;-63
2023/07/27 06:12:18;;;;;;;22.55;10.55;;;15.50;99.90;;;;;;5035351;28;20025;-63
2023/07/27 06:14:44;;;;;;;14.35;9.15;;;15.50;99.90;;;;;;5029469;28;20021;-63
2023/07/27 06:17:09;;;;;;;18.45;10.05;;;15.50;99.90;;;;;;5032813;28;20079;-64
2023/07/27 06:19:35;;;;;;;21.02;11.88;;;15.50;99.90;;;;;;5029609;28;20033;-64
2023/07/27 06:22:01;;;;;;;18.95;9.18;;;15.50;99.90;;;;;;5029341;28;20485;-65
2023/07/27 06:24:26;;;;;;;15.50;7.28;;;15.50;99.90;;;;;;5034824;28;20033;-64
2023/07/27 06:26:52;;;;;;;14.52;7.68;;;15.60;99.90;;;;;;5021877;28;20117;-64
2023/07/27 06:29:17;;;;;;;32.17;9.13;;;15.60;99.90;;;;;;5038108;28;20029;-64
2023/07/27 06:31:43;;;;;;;17.05;7.97;;;15.60;99.90;;;;;;5032261;28;20751;-62
2023/07/27 06:34:09;;;;;;;18.85;8.32;;;15.70;99.90;;;;;;5029719;28;20029;-62
2023/07/27 06:36:35;;;;;;;19.52;8.43;;;15.60;99.90;;;;;;5029343;28;20029;-63
2023/07/27 06:39:00;;;;;;;15.30;8.25;;;15.60;99.90;;;;;;5033473;28;20064;-62
2023/07/27 06:41:26;;;;;;;18.95;7.97;;;15.70;99.90;;;;;;5025488;28;20068;-61
2023/07/27 06:43:52;;;;;;;15.32;8.43;;;15.70;99.90;;;;;;5028990;28;20060;-63
2023/07/27 06:46:18;;;;;;;16.00;8.05;;;15.80;99.90;;;;;;5029401;28;20563;-65
2023/07/27 06:48:46;;;;;;;15.63;7.95;;;15.80;99.90;;;;;;5031480;28;20083;-64
2023/07/27 06:51:12;;;;;;;16.45;8.30;;;15.80;99.90;;;;;;5032987;28;20029;-63
2023/07/27 06:53:37;;;;;;;14.43;8.23;;;15.80;99.90;;;;;;5030131;28;20616;-63
2023/07/27 06:56:04;;;;;;;20.10;8.43;;;15.80;99.90;;;;;;5026426;28;20053;-64
2023/07/27 06:58:30;;;;;;;17.90;7.60;;;15.80;99.90;;;;;;5029315;28;20025;-61
2023/07/27 07:00:56;;;;;;;12.20;8.35;;;15.90;99.90;;;;;;5033366;28;20057;-63
2023/07/27 07:03:21;;;;;;;14.70;9.10;;;15.80;99.90;;;;;;5032397;28;20474;-63
2023/07/27 07:05:47;;;;;;;13.32;8.30;;;15.90;99.90;;;;;;5032852;28;20392;-63
2023/07/27 07:08:13;;;;;;;11.75;7.65;;;15.90;99.90;;;;;;5034350;28;20068;-62
2023/07/27 07:10:38;;;;;;;15.85;8.02;;;15.90;99.90;;;;;;5034549;28;20017;-61
2023/07/27 07:13:04;;;;;;;15.98;8.57;;;15.90;99.90;;;;;;5039015;28;20116;-61
2023/07/27 07:15:29;;;;;;;18.60;9.90;;;16.00;99.90;;;;;;5028440;28;20022;-62
2023/07/27 07:17:55;;;;;;;45.28;25.25;;;16.00;99.90;;;;;;5032527;28;20040;-61
2023/07/27 07:20:21;;;;;;;27.35;14.55;;;16.00;99.90;;;;;;5046167;28;20119;-64
2023/07/27 07:22:46;;;;;;;19.08;10.05;;;16.10;99.90;;;;;;5029550;28;20408;-60
2023/07/27 07:25:12;;;;;;;13.77;8.05;;;16.10;99.90;;;;;;5021911;28;20108;-63
2023/07/27 07:27:37;;;;;;;12.35;6.72;;;16.10;99.90;;;;;;5031974;28;20166;-60
2023/07/27 07:30:04;;;;;;;9.38;5.55;;;16.10;99.90;;;;;;5032669;28;20680;-59
2023/07/27 07:32:31;;;;;;;9.82;6.38;;;16.10;99.90;;;;;;5029873;28;20018;-63
2023/07/27 07:34:57;;;;;;;10.43;5.95;;;16.10;99.90;;;;;;5030673;28;20029;-64
2023/07/27 07:37:22;;;;;;;13.07;5.85;;;16.10;99.90;;;;;;5033706;28;20115;-61
2023/07/27 07:39:48;;;;;;;10.68;6.28;;;16.20;99.90;;;;;;5031594;28;20041;-60
2023/07/27 07:42:14;;;;;;;7.38;5.13;;;16.20;99.90;;;;;;5031238;28;20025;-62
2023/07/27 07:44:39;;;;;;;7.70;4.85;;;16.20;99.90;;;;;;5032504;28;20029;-61
2023/07/27 07:47:05;;;;;;;7.25;5.28;;;16.30;99.90;;;;;;5034208;28;20044;-62
2023/07/27 07:49:30;;;;;;;13.55;4.18;;;16.30;99.90;;;;;;5031312;28;20167;-64
2023/07/27 07:51:56;;;;;;;7.88;4.53;;;16.30;99.90;;;;;;5031940;28;20389;-60
2023/07/27 07:54:22;;;;;;;7.65;4.85;;;16.40;99.90;;;;;;5035771;28;20528;-62
2023/07/27 07:56:47;;;;;;;10.15;5.85;;;16.40;99.90;;;;;;5035127;28;20028;-62
2023/07/27 07:59:14;;;;;;;19.20;7.05;;;16.40;99.90;;;;;;5025184;28;20509;-59
2023/07/27 08:01:40;;;;;;;18.80;8.88;;;16.40;99.90;;;;;;5036126;28;20385;-64
2023/07/27 08:04:07;;;;;;;31.83;14.57;;;16.40;99.90;;;;;;5034995;28;20025;-63
2023/07/27 08:06:33;;;;;;;37.25;17.30;;;16.50;99.90;;;;;;5031002;28;20109;-61
2023/07/27 08:08:59;;;;;;;23.25;11.52;;;16.50;99.90;;;;;;5032270;28;20104;-63
2023/07/27 08:11:24;;;;;;;13.40;7.78;;;16.50;99.90;;;;;;5033926;28;20040;-62
2023/07/27 08:13:50;;;;;;;12.00;5.60;;;16.50;99.90;;;;;;5028164;28;20072;-62
2023/07/27 08:16:15;;;;;;;9.52;5.47;;;16.50;99.90;;;;;;5034642;28;20033;-62
2023/07/27 08:18:41;;;;;;;7.85;4.75;;;16.50;99.90;;;;;;5031294;28;20083;-62
2023/07/27 08:21:08;;;;;;;10.70;6.20;;;16.50;99.90;;;;;;5032888;28;20037;-62
2023/07/27 08:23:34;;;;;;;24.33;13.80;;;16.60;99.90;;;;;;5029575;28;20393;-63
2023/07/27 08:26:01;;;;;;;14.45;8.45;;;16.70;99.90;;;;;;5027516;28;20093;-62
2023/07/27 08:28:27;;;;;;;125.55;51.97;;;16.60;99.90;;;;;;5031619;28;20036;-63
2023/07/27 08:30:53;;;;;;;22.10;12.00;;;16.70;99.90;;;;;;5035433;28;20018;-63
2023/07/27 08:33:19;;;;;;;19.98;11.65;;;16.70;99.90;;;;;;5025577;28;20022;-63
2023/07/27 08:35:46;;;;;;;25.17;12.93;;;16.70;99.90;;;;;;5032096;28;20493;-63
2023/07/27 08:38:12;;;;;;;7.82;5.28;;;16.80;99.90;;;;;;5037803;28;20029;-63
2023/07/27 08:40:37;;;;;;;15.05;6.28;;;16.70;99.90;;;;;;5026374;28;20028;-62
2023/07/27 08:43:05;;;;;;;8.90;5.20;;;16.80;99.90;;;;;;5033625;28;20603;-61
2023/07/27 08:45:31;;;;;;;7.50;5.00;;;16.80;99.90;;;;;;5036140;28;20037;-63
2023/07/27 08:47:57;;;;;;;10.00;6.15;;;16.80;99.90;;;;;;5046649;28;20029;-64
2023/07/27 08:50:23;;;;;;;8.88;6.55;;;16.90;99.90;;;;;;5026098;28;20025;-61
2023/07/27 08:52:49;;;;;;;10.00;5.70;;;16.90;99.90;;;;;;5029051;28;20087;-63
2023/07/27 08:55:15;;;;;;;8.68;5.95;;;17.00;99.90;;;;;;5029967;28;20018;-62
2023/07/27 08:57:41;;;;;;;8.18;5.65;;;17.10;99.90;;;;;;5030333;28;20033;-60
2023/07/27 09:00:09;;;;;;;12.98;6.18;;;17.10;99.90;;;;;;5030586;28;20393;-63
2023/07/27 09:02:35;;;;;;;8.63;4.82;;;17.10;99.90;;;;;;5030157;28;20021;-58
2023/07/27 09:05:01;;;;;;;9.30;4.85;;;17.10;99.90;;;;;;5028850;28;20048;-61
2023/07/27 09:07:26;;;;;;;7.97;5.53;;;17.20;99.90;;;;;;5029763;28;21706;-63
2023/07/27 09:09:53;;;;;;;7.55;5.43;;;17.20;99.90;;;;;;5034295;28;20056;-63
2023/07/27 09:12:22;;;;;;;8.05;5.53;;;17.20;99.90;;;;;;5031612;28;20029;-62
2023/07/27 09:14:48;;;;;;;7.95;5.28;;;17.30;99.90;;;;;;5030612;28;20056;-61
2023/07/27 09:17:13;;;;;;;6.53;5.38;;;17.40;99.90;;;;;;5029252;28;20029;-62
2023/07/27 09:19:41;;;;;;;8.25;4.72;;;17.40;99.90;;;;;;5029328;28;20044;-61
2023/07/27 09:22:07;;;;;;;9.13;5.22;;;17.40;99.90;;;;;;5027376;28;20053;-60
2023/07/27 09:24:34;;;;;;;11.57;6.05;;;17.30;99.90;;;;;;5029553;28;20053;-63
2023/07/27 09:27:02;;;;;;;7.45;5.32;;;17.30;99.90;;;;;;5037627;28;20025;-62
2023/07/27 09:29:28;;;;;;;10.43;5.63;;;17.40;99.90;;;;;;5028588;28;20080;-60
2023/07/27 09:31:58;;;;;;;6.55;4.72;;;17.40;99.90;;;;;;5027817;28;20639;-62
2023/07/27 09:34:29;;;;;;;8.50;5.18;;;17.40;99.90;;;;;;5029126;28;20556;-58
2023/07/27 09:37:02;;;;;;;11.43;7.40;;;17.50;99.90;;;;;;5027697;28;20017;-60
2023/07/27 09:39:29;;;;;;;11.50;5.65;;;17.50;99.90;;;;;;5032516;28;20068;-63
2023/07/27 09:41:55;;;;;;;9.57;6.00;;;17.50;99.90;;;;;;5034307;28;20025;-62
2023/07/27 09:44:24;;;;;;;9.88;5.78;;;17.50;99.90;;;;;;5034645;28;20052;-62
2023/07/27 09:46:50;;;;;;;9.40;5.72;;;17.60;99.90;;;;;;5031972;28;20446;-61
2023/07/27 09:49:16;;;;;;;7.18;5.18;;;17.50;99.90;;;;;;5030666;28;20056;-61
2023/07/27 09:51:43;;;;;;;14.25;6.03;;;17.60;99.90;;;;;;5029872;28;20021;-61
2023/07/27 09:54:09;;;;;;;10.77;6.65;;;17.50;99.90;;;;;;5031892;28;20032;-63
2023/07/27 09:56:35;;;;;;;8.32;5.85;;;17.50;99.90;;;;;;5031167;28;20133;-63
2023/07/27 09:59:00;;;;;;;17.45;8.23;;;17.60;99.90;;;;;;5034526;28;20104;-64
2023/07/27 10:01:27;;;;;;;15.90;10.95;;;17.70;99.90;;;;;;5036341;28;20489;-62
2023/07/27 10:03:57;;;;;;;14.00;8.68;;;17.60;99.90;;;;;;5032822;28;20025;-61
2023/07/27 10:06:27;;;;;;;13.18;8.57;;;17.70;99.90;;;;;;5033686;28;20046;-63
2023/07/27 10:08:54;;;;;;;23.00;12.60;;;17.70;99.90;;;;;;5034823;28;20116;-63
2023/07/27 10:11:29;;;;;;;16.45;11.07;;;17.80;99.90;;;;;;5033018;28;20036;-63
2023/07/27 10:13:57;;;;;;;24.13;14.23;;;17.80;99.90;;;;;;5030485;28;20025;-59
2023/07/27 10:16:27;;;;;;;23.10;16.15;;;18.00;99.90;;;;;;5029139;28;20041;-61
2023/07/27 10:18:53;;;;;;;26.50;16.88;;;18.00;99.90;;;;;;5038964;28;20036;-64
2023/07/27 10:21:26;;;;;;;20.15;12.88;;;18.10;99.90;;;;;;5033908;28;20067;-63
2023/07/27 10:24:00;;;;;;;19.02;12.35;;;18.20;99.90;;;;;;5037815;28;20029;-64
2023/07/27 10:26:44;;;;;;;13.40;10.00;;;18.20;99.90;;;;;;5028829;28;20767;-63
2023/07/27 10:29:18;;;;;;;17.35;8.35;;;18.20;99.90;;;;;;5035559;28;20037;-64
2023/07/27 10:31:45;;;;;;;8.73;6.68;;;18.20;99.90;;;;;;5034397;28;20029;-63
2023/07/27 10:34:16;;;;;;;10.95;6.25;;;18.20;99.90;;;;;;5032502;28;20046;-64
2023/07/27 10:36:47;;;;;;;9.90;7.85;;;18.30;99.90;;;;;;5029849;28;20091;-64
2023/07/27 10:39:18;;;;;;;10.20;7.50;;;18.30;99.90;;;;;;5033341;28;21853;-62
2023/07/27 10:42:02;;;;;;;9.20;7.45;;;18.30;99.90;;;;;;5039016;28;20438;-62
2023/07/27 10:44:44;;;;;;;36.17;19.48;;;18.40;99.90;;;;;;5050544;28;20045;-60
2023/07/27 10:47:15;;;;;;;16.80;10.32;;;18.40;99.90;;;;;;5033746;28;20691;-63
2023/07/27 10:49:46;;;;;;;15.70;11.18;;;18.40;99.90;;;;;;5032733;28;20128;-64
2023/07/27 10:52:24;;;;;;;12.05;7.65;;;18.40;99.90;;;;;;5034055;28;20017;-64
2023/07/27 10:54:51;;;;;;;5.72;4.57;;;18.50;99.90;;;;;;5034544;28;20059;-64
2023/07/27 10:57:18;;;;;;;11.15;4.47;;;18.50;99.90;;;;;;5029379;28;20104;-64
2023/07/27 10:59:45;;;;;;;5.78;4.07;;;18.50;99.90;;;;;;5033847;28;20033;-62
2023/07/27 11:02:29;;;;;;;10.00;4.28;;;18.60;99.90;;;;;;5035283;28;20037;-62
2023/07/27 11:04:56;;;;;;;8.75;4.70;;;18.70;99.90;;;;;;5025999;28;20232;-62
2023/07/27 11:07:26;;;;;;;8.63;2.60;;;18.70;99.90;;;;;;5029402;28;20036;-62
2023/07/27 11:09:52;;;;;;;4.22;2.55;;;18.50;99.90;;;;;;5030734;28;20501;-62
2023/07/27 11:12:17;;;;;;;4.97;2.25;;;18.50;99.90;;;;;;5025032;28;20029;-62
2023/07/27 11:14:43;;;;;;;5.80;1.77;;;18.50;99.90;;;;;;5027896;28;20026;-61
2023/07/27 11:17:10;;;;;;;3.63;1.42;;;18.50;99.90;;;;;;5027459;28;20029;-63
2023/07/27 11:19:36;;;;;;;1.67;1.25;;;18.40;99.90;;;;;;5033516;28;20036;-62
2023/07/27 11:22:02;;;;;;;2.55;1.10;;;18.50;99.90;;;;;;5035644;28;20425;-64
2023/07/27 11:24:29;;;;;;;10.38;1.40;;;18.50;99.90;;;;;;5029738;28;20033;-64
2023/07/27 11:26:54;;;;;;;1.33;1.00;;;18.50;99.90;;;;;;5034848;28;20109;-63
2023/07/27 11:29:20;;;;;;;1.33;1.00;;;18.50;99.90;;;;;;5030081;28;20120;-63
2023/07/27 11:31:58;;;;;;;3.40;1.20;;;18.60;99.90;;;;;;5030911;28;20033;-63
2023/07/27 11:34:25;;;;;;;3.03;1.13;;;18.60;99.90;;;;;;5032030;28;20037;-61
2023/07/27 11:36:56;;;;;;;2.22;0.90;;;18.60;99.90;;;;;;5038460;28;20022;-60
2023/07/27 11:39:22;;;;;;;1.20;1.00;;;18.70;99.90;;;;;;5028820;28;20033;-64
2023/07/27 11:41:49;;;;;;;2.20;1.10;;;18.80;99.90;;;;;;5027721;28;20488;-62
2023/07/27 11:44:16;;;;;;;0.80;0.80;;;18.80;99.90;;;;;;5026469;28;20112;-64
2023/07/27 11:46:46;;;;;;;1.13;0.80;;;18.80;99.90;;;;;;5029101;28;20021;-64
2023/07/27 11:49:13;;;;;;;1.67;0.90;;;18.90;99.90;;;;;;5033726;28;20412;-63
2023/07/27 11:51:39;;;;;;;2.47;0.55;;;18.90;99.90;;;;;;5033928;28;20025;-61
2023/07/27 11:54:05;;;;;;;0.90;0.77;;;19.00;99.90;;;;;;5034661;28;20026;-62
2023/07/27 11:56:37;;;;;;;7.80;1.00;;;19.00;99.90;;;;;;5029632;28;20036;-62
2023/07/27 11:59:06;;;;;;;2.35;1.00;;;19.00;99.90;;;;;;5035909;28;20029;-63
2023/07/27 12:01:36;;;;;;;4.30;1.70;;;19.00;99.90;;;;;;5031278;28;20040;-63
2023/07/27 12:04:04;;;;;;;3.80;0.70;;;19.00;99.90;;;;;;5034667;28;20097;-63
2023/07/27 12:06:30;;;;;;;2.83;1.13;;;19.00;99.90;;;;;;5027421;28;20040;-63
2023/07/27 12:08:56;;;;;;;1.70;0.80;;;19.00;99.90;;;;;;5027822;28;20080;-63
2023/07/27 12:11:26;;;;;;;1.38;1.10;;;19.00;99.90;;;;;;5033491;28;20500;-63
2023/07/27 12:13:51;;;;;;;1.35;0.80;;;18.90;99.90;;;;;;5028960;28;20025;-62
2023/07/27 12:16:17;;;;;;;1.63;0.80;;;18.90;99.90;;;;;;5029610;28;20624;-63
2023/07/27 12:18:45;;;;;;;3.00;1.05;;;19.00;99.90;;;;;;5031689;28;20397;-62
2023/07/27 12:21:11;;;;;;;2.92;1.83;;;19.00;99.90;;;;;;5036315;28;20036;-63
2023/07/27 12:23:37;;;;;;;2.10;0.80;;;19.00;99.90;;;;;;5028623;28;20443;-60
2023/07/27 12:26:03;;;;;;;0.65;0.65;;;18.90;99.90;;;;;;5031615;28;20109;-62
2023/07/27 12:28:31;;;;;;;2.00;0.73;;;18.90;99.90;;;;;;5038393;28;20101;-62
2023/07/27 12:30:56;;;;;;;2.72;0.80;;;18.90;99.90;;;;;;5031461;28;20435;-62
2023/07/27 12:33:25;;;;;;;3.00;1.05;;;18.90;99.90;;;;;;5030884;28;20022;-62
2023/07/27 12:35:52;;;;;;;2.35;0.90;;;18.80;99.90;;;;;;5032610;28;20016;-60
2023/07/27 12:38:18;;;;;;;1.02;0.80;;;18.90;99.90;;;;;;5031556;28;20017;-61
2023/07/27 12:40:44;;;;;;;5.25;0.80;;;18.80;99.90;;;;;;5031990;28;20036;-61